createdAt,value
2018-11-06T00:00:58.601Z,0.00
2018-11-06T00:01:58.518Z,0.00
2018-11-06T00:02:58.471Z,0.00
2018-11-06T00:03:58.359Z,0.00
2018-11-06T00:04:58.327Z,0.00
2018-11-06T00:05:58.181Z,0.00
2018-11-06T00:06:58.113Z,0.00
2018-11-06T00:07:58.040Z,0.00
2018-11-06T00:08:57.938Z,0.00
2018-11-06T00:09:57.855Z,0.00
2018-11-06T00:28:20.164Z,0.00
2018-11-06T00:29:20.097Z,0.00
2018-11-06T00:32:02.205Z,0.00
2018-11-06T00:33:02.121Z,0.00
2018-11-06T00:34:02.113Z,0.00
2018-11-06T00:35:02.967Z,0.00
2018-11-06T00:36:01.860Z,0.00
2018-11-06T00:37:01.776Z,0.00
2018-11-06T00:38:01.707Z,0.00
2018-11-06T00:39:01.652Z,0.00
2018-11-06T00:40:01.527Z,0.00
2018-11-06T00:41:01.444Z,0.00
2018-11-06T00:42:01.364Z,0.00
2018-11-06T00:43:01.274Z,0.00
2018-11-06T00:44:01.264Z,0.00
2018-11-06T00:45:02.135Z,0.00
2018-11-06T00:46:01.015Z,0.00
2018-11-06T00:47:00.993Z,0.00
2018-11-06T00:48:00.864Z,0.00
2018-11-06T00:49:00.772Z,0.00
2018-11-06T00:50:00.715Z,0.00
2018-11-06T00:51:00.634Z,0.00
2018-11-06T00:52:00.548Z,0.00
2018-11-06T00:53:00.450Z,0.00
2018-11-06T00:54:00.353Z,0.00
2018-11-06T00:55:00.298Z,0.00
2018-11-06T00:56:00.198Z,0.00
2018-11-06T00:57:00.132Z,0.00
2018-11-06T00:58:00.035Z,0.00
2018-11-06T01:00:42.194Z,0.00
2018-11-06T01:01:43.146Z,0.00
2018-11-06T01:02:42.023Z,0.00
2018-11-06T01:03:41.946Z,0.00
2018-11-06T01:04:41.876Z,0.00
2018-11-06T01:05:41.789Z,0.00
2018-11-06T01:06:41.705Z,0.00
2018-11-06T01:07:41.652Z,0.00
2018-11-06T01:08:41.537Z,0.00
2018-11-06T01:09:41.459Z,0.00
2018-11-06T01:10:41.378Z,0.00
2018-11-06T01:11:41.308Z,0.00
2018-11-06T01:12:41.199Z,0.00
2018-11-06T01:13:41.193Z,0.00
2018-11-06T01:14:41.037Z,0.00
2018-11-06T01:15:40.956Z,0.00
2018-11-06T01:16:40.860Z,0.00
2018-11-06T01:19:22.720Z,0.00
2018-11-06T01:20:22.715Z,0.00
2018-11-06T01:21:22.530Z,0.00
2018-11-06T01:22:22.503Z,0.00
2018-11-06T01:29:03.577Z,0.00
2018-11-06T01:30:03.465Z,0.00
2018-11-06T01:31:03.387Z,0.00
2018-11-06T01:32:03.280Z,0.00
2018-11-06T01:33:03.219Z,0.00
2018-11-06T01:34:03.115Z,0.00
2018-11-06T01:36:45.202Z,0.00
2018-11-06T01:39:27.231Z,0.00
2018-11-06T01:40:27.118Z,0.00
2018-11-06T01:41:27.040Z,0.00
2018-11-06T01:42:26.966Z,0.00
2018-11-06T01:43:26.897Z,0.00
2018-11-06T01:44:26.799Z,0.00
2018-11-06T01:45:26.707Z,0.00
2018-11-06T01:46:26.641Z,0.00
2018-11-06T01:47:26.543Z,0.00
2018-11-06T01:48:26.478Z,0.00
2018-11-06T01:49:26.390Z,0.00
2018-11-06T01:50:26.293Z,0.00
2018-11-06T01:51:26.202Z,0.00
2018-11-06T01:52:26.117Z,0.00
2018-11-06T01:53:26.051Z,0.00
2018-11-06T01:54:25.956Z,0.00
2018-11-06T01:55:25.896Z,0.00
2018-11-06T01:56:25.841Z,0.00
2018-11-06T01:57:25.693Z,0.00
2018-11-06T01:58:25.622Z,0.00
2018-11-06T01:59:25.698Z,0.00
2018-11-06T02:00:25.458Z,0.00
2018-11-06T02:01:25.369Z,0.00
2018-11-06T02:02:25.283Z,0.00
2018-11-06T02:03:25.201Z,0.00
2018-11-06T02:04:26.152Z,0.00
2018-11-06T02:05:25.029Z,0.00
2018-11-06T02:06:24.995Z,0.00
2018-11-06T02:07:24.863Z,0.00
2018-11-06T02:08:24.782Z,0.00
2018-11-06T02:09:24.700Z,0.00
2018-11-06T02:10:24.654Z,0.00
2018-11-06T02:11:24.532Z,0.00
2018-11-06T02:12:24.464Z,0.00
2018-11-06T02:13:24.366Z,0.00
2018-11-06T02:16:06.237Z,0.00
2018-11-06T02:17:08.138Z,0.00
2018-11-06T02:18:06.049Z,0.00
2018-11-06T02:19:05.970Z,0.00
2018-11-06T02:20:06.048Z,0.00
2018-11-06T02:21:06.807Z,0.00
2018-11-06T02:22:05.714Z,0.00
2018-11-06T02:24:47.705Z,0.00
2018-11-06T02:25:47.659Z,0.00
2018-11-06T02:26:47.702Z,0.00
2018-11-06T02:27:47.471Z,0.00
2018-11-06T02:28:47.383Z,0.00
2018-11-06T02:29:47.307Z,0.00
2018-11-06T02:30:47.213Z,0.00
2018-11-06T02:31:47.164Z,0.00
2018-11-06T02:32:47.042Z,0.00
2018-11-06T02:35:29.218Z,0.00
2018-11-06T02:36:50.130Z,0.00
2018-11-06T02:37:29.049Z,0.00
2018-11-06T02:40:11.228Z,0.00
2018-11-06T02:41:11.136Z,0.00
2018-11-06T03:04:50.754Z,0.00
2018-11-06T03:05:50.675Z,0.00
2018-11-06T03:06:50.584Z,0.00
2018-11-06T03:07:50.532Z,0.00
2018-11-06T03:08:50.424Z,0.00
2018-11-06T03:09:50.340Z,0.00
2018-11-06T03:10:50.250Z,0.00
2018-11-06T03:11:50.189Z,0.00
2018-11-06T03:12:50.080Z,0.00
2018-11-06T03:13:50.017Z,0.00
2018-11-06T03:14:49.953Z,0.00
2018-11-06T03:17:31.735Z,0.00
2018-11-06T03:18:32.686Z,0.00
2018-11-06T03:19:31.654Z,0.00
2018-11-06T03:20:31.478Z,0.00
2018-11-06T03:21:31.395Z,0.00
2018-11-06T03:24:13.223Z,0.00
2018-11-06T03:25:13.182Z,0.00
2018-11-06T03:26:13.084Z,0.00
2018-11-06T03:27:12.990Z,0.00
2018-11-06T03:28:12.884Z,0.00
2018-11-06T03:29:12.815Z,0.00
2018-11-06T03:45:53.981Z,0.00
2018-11-06T03:46:53.875Z,0.00
2018-11-06T03:47:53.812Z,0.00
2018-11-06T03:48:53.720Z,0.00
2018-11-06T03:51:35.761Z,0.00
2018-11-06T03:52:35.652Z,0.00
2018-11-06T03:53:35.555Z,0.00
2018-11-06T03:56:17.744Z,0.00
2018-11-06T03:57:17.651Z,0.00
2018-11-06T03:58:17.567Z,0.00
2018-11-06T03:59:17.482Z,0.00
2018-11-06T04:00:17.397Z,0.00
2018-11-06T04:01:17.335Z,0.00
2018-11-06T04:02:17.336Z,0.00
2018-11-06T04:05:24.729Z,0.00
2018-11-06T04:06:25.688Z,0.00
2018-11-06T04:07:24.567Z,0.00
2018-11-06T04:08:24.483Z,0.00
2018-11-06T04:09:24.394Z,0.00
2018-11-06T04:10:24.322Z,0.00
2018-11-06T04:11:24.233Z,0.00
2018-11-06T04:27:21.766Z,0.00
2018-11-06T04:28:21.668Z,0.00
2018-11-06T04:29:21.568Z,0.00
2018-11-06T04:30:21.510Z,0.00
2018-11-06T04:31:21.400Z,0.00
2018-11-06T04:32:21.348Z,0.00
2018-11-06T04:33:21.362Z,0.00
2018-11-06T04:36:34.741Z,0.00
2018-11-06T04:37:55.696Z,0.00
2018-11-06T04:38:55.560Z,0.00
2018-11-06T04:41:37.792Z,0.00
2018-11-06T04:42:37.664Z,0.00
2018-11-06T04:43:37.604Z,0.00
2018-11-06T04:44:37.610Z,0.00
2018-11-06T04:45:37.405Z,0.00
2018-11-06T04:46:37.329Z,0.00
2018-11-06T04:47:37.259Z,0.00
2018-11-06T04:48:37.180Z,0.00
2018-11-06T04:49:37.074Z,0.00
2018-11-06T04:50:36.997Z,0.00
2018-11-06T04:51:36.898Z,0.00
2018-11-06T04:52:36.865Z,0.00
2018-11-06T04:53:36.762Z,0.00
2018-11-06T04:55:43.144Z,0.00
2018-11-06T04:56:43.067Z,0.00
2018-11-06T04:57:42.973Z,0.00
2018-11-06T04:58:42.920Z,0.00
2018-11-06T04:59:42.808Z,0.00
2018-11-06T05:00:42.758Z,0.00
2018-11-06T05:01:42.646Z,0.00
2018-11-06T05:04:24.764Z,0.00
2018-11-06T05:05:24.668Z,0.00
2018-11-06T05:06:24.575Z,0.00
2018-11-06T05:07:24.507Z,0.00
2018-11-06T05:08:24.408Z,0.00
2018-11-06T05:09:24.349Z,0.00
2018-11-06T05:10:24.261Z,0.00
2018-11-06T05:11:24.167Z,0.00
2018-11-06T05:12:24.155Z,0.00
2018-11-06T05:13:24.047Z,0.00
2018-11-06T05:14:23.994Z,0.00
2018-11-06T05:15:23.869Z,0.00
2018-11-06T05:16:23.748Z,0.00
2018-11-06T05:17:23.665Z,0.00
2018-11-06T05:18:23.574Z,0.00
2018-11-06T05:19:23.515Z,0.00
2018-11-06T05:20:23.409Z,0.00
2018-11-06T05:21:23.339Z,0.00
2018-11-06T05:22:23.247Z,0.00
2018-11-06T05:23:23.162Z,0.00
2018-11-06T05:24:23.098Z,0.00
2018-11-06T05:25:24.104Z,0.00
2018-11-06T05:26:22.908Z,0.00
2018-11-06T05:29:05.260Z,0.00
2018-11-06T05:30:05.207Z,0.00
2018-11-06T05:31:05.104Z,0.00
2018-11-06T05:32:05.007Z,0.00
2018-11-06T05:33:04.950Z,0.00
2018-11-06T05:34:04.836Z,0.00
2018-11-06T05:35:04.772Z,0.00
2018-11-06T05:36:04.697Z,0.00
2018-11-06T05:37:04.578Z,0.00
2018-11-06T05:38:04.509Z,0.00
2018-11-06T05:39:04.472Z,0.00
2018-11-06T05:40:04.363Z,0.00
2018-11-06T05:41:04.254Z,0.00
2018-11-06T05:42:04.171Z,0.00
2018-11-06T05:43:04.083Z,0.00
2018-11-06T05:44:04.061Z,0.00
2018-11-06T05:45:03.904Z,0.00
2018-11-06T05:46:03.963Z,0.00
2018-11-06T05:47:03.759Z,0.00
2018-11-06T05:48:07.745Z,0.00
2018-11-06T05:49:03.571Z,0.00
2018-11-06T05:50:03.508Z,0.00
2018-11-06T05:51:03.570Z,0.00
2018-11-06T05:52:03.326Z,0.00
2018-11-06T05:53:03.290Z,0.00
2018-11-06T05:55:45.274Z,0.00
2018-11-06T05:57:06.152Z,0.00
2018-11-06T05:57:45.087Z,0.00
2018-11-06T05:58:45.010Z,0.00
2018-11-06T05:59:44.914Z,0.00
2018-11-06T06:00:44.859Z,0.00
2018-11-06T06:01:44.773Z,0.00
2018-11-06T06:02:44.670Z,0.00
2018-11-06T06:25:06.891Z,5.63
2018-11-06T06:26:06.790Z,5.63
2018-11-06T06:27:06.755Z,5.63
2018-11-06T06:28:06.630Z,5.63
2018-11-06T06:29:07.561Z,5.63
2018-11-06T06:30:06.541Z,5.63
2018-11-06T06:31:06.396Z,5.63
2018-11-06T06:32:06.325Z,5.63
2018-11-06T06:33:06.216Z,11.25
2018-11-06T06:34:06.131Z,11.25
2018-11-06T06:35:06.131Z,11.25
2018-11-06T06:36:05.958Z,11.25
2018-11-06T06:37:05.891Z,11.25
2018-11-06T06:38:05.808Z,11.25
2018-11-06T06:39:06.769Z,16.88
2018-11-06T06:40:05.690Z,16.88
2018-11-06T06:41:05.594Z,16.88
2018-11-06T06:42:05.468Z,22.50
2018-11-06T06:43:05.417Z,22.50
2018-11-06T06:44:05.328Z,22.50
2018-11-06T06:45:05.221Z,28.13
2018-11-06T06:46:05.178Z,28.13
2018-11-06T06:47:05.071Z,28.13
2018-11-06T06:48:04.983Z,28.13
2018-11-06T06:49:04.931Z,33.75
2018-11-06T06:50:04.888Z,33.75
2018-11-06T06:52:46.782Z,39.38
2018-11-06T06:53:46.857Z,39.38
2018-11-06T06:54:46.624Z,39.38
2018-11-06T06:55:46.526Z,45.00
2018-11-06T06:56:46.487Z,45.00
2018-11-06T06:59:28.278Z,50.63
2018-11-06T07:00:28.181Z,50.63
2018-11-06T07:01:28.096Z,56.25
2018-11-06T07:02:28.038Z,56.25
2018-11-06T07:03:27.956Z,61.88
2018-11-06T07:04:27.903Z,61.88
2018-11-06T07:05:27.775Z,67.50
2018-11-06T07:06:27.693Z,67.50
2018-11-06T07:07:27.617Z,73.13
2018-11-06T07:10:51.792Z,90.00
2018-11-06T07:12:12.663Z,90.00
2018-11-06T07:13:12.584Z,95.63
2018-11-06T07:14:12.499Z,101.25
2018-11-06T07:15:12.491Z,101.25
2018-11-06T07:16:12.333Z,106.88
2018-11-06T07:17:12.254Z,112.50
2018-11-06T07:17:51.297Z,118.13
2018-11-06T07:18:51.109Z,123.75
2018-11-06T07:19:51.061Z,135.00
2018-11-06T07:20:50.969Z,140.63
2018-11-06T07:21:50.863Z,146.25
2018-11-06T07:22:50.814Z,151.88
2018-11-06T07:25:32.809Z,168.75
2018-11-06T07:26:53.676Z,174.38
2018-11-06T07:27:32.613Z,180.00
2018-11-06T07:28:32.527Z,180.00
2018-11-06T07:29:32.446Z,180.00
2018-11-06T07:30:32.410Z,185.63
2018-11-06T07:31:32.275Z,185.63
2018-11-06T07:32:32.192Z,191.25
2018-11-06T07:34:56.987Z,202.50
2018-11-06T07:35:56.814Z,208.13
2018-11-06T07:38:38.771Z,219.38
2018-11-06T07:39:59.884Z,225.00
2018-11-06T07:41:00.438Z,225.00
2018-11-06T07:41:38.577Z,225.00
2018-11-06T08:07:00.251Z,405.00
2018-11-06T08:08:00.090Z,405.00
2018-11-06T08:09:00.005Z,410.63
2018-11-06T08:11:42.326Z,421.88
2018-11-06T08:12:42.206Z,421.88
2018-11-06T08:13:42.165Z,416.25
2018-11-06T08:14:42.140Z,416.25
2018-11-06T08:15:41.951Z,421.88
2018-11-06T08:16:41.878Z,427.50
2018-11-06T08:17:41.798Z,438.75
2018-11-06T08:18:41.714Z,455.63
2018-11-06T08:19:41.635Z,478.13
2018-11-06T08:20:41.600Z,483.75
2018-11-06T08:21:41.486Z,528.75
2018-11-06T08:22:41.400Z,686.25
2018-11-06T08:23:41.319Z,860.63
2018-11-06T08:24:41.223Z,956.25
2018-11-06T08:25:41.137Z,1018.13
2018-11-06T08:26:41.060Z,1023.75
2018-11-06T08:40:03.682Z,1158.75
2018-11-06T08:41:03.563Z,1158.75
2018-11-06T08:42:03.481Z,1158.75
2018-11-06T08:43:03.408Z,1203.75
2018-11-06T08:44:03.344Z,1226.25
2018-11-06T08:45:03.262Z,1141.88
2018-11-06T08:46:03.176Z,1153.13
2018-11-06T08:47:03.130Z,1237.50
2018-11-06T08:48:03.044Z,1271.25
2018-11-06T08:49:02.983Z,1276.88
2018-11-06T08:50:02.875Z,1288.13
2018-11-06T08:52:44.791Z,1333.13
2018-11-06T08:53:44.727Z,1310.63
2018-11-06T08:54:44.733Z,1310.63
2018-11-06T08:55:44.562Z,1248.75
2018-11-06T08:56:44.496Z,1181.25
2018-11-06T08:57:44.412Z,1051.88
2018-11-06T08:58:44.491Z,1074.38
2018-11-06T09:01:32.825Z,1125.00
2018-11-06T09:02:53.801Z,1170.00
2018-11-06T09:03:53.618Z,1164.38
2018-11-06T09:04:54.566Z,1215.00
2018-11-06T09:07:14.793Z,1248.75
2018-11-06T09:08:14.724Z,1231.88
2018-11-06T09:09:14.665Z,1029.38
2018-11-06T09:10:15.591Z,922.50
2018-11-06T09:11:14.497Z,978.75
2018-11-06T09:12:14.441Z,922.50
2018-11-06T09:13:14.332Z,1001.25
2018-11-06T09:14:14.298Z,973.13
2018-11-06T09:15:14.185Z,1091.25
2018-11-06T09:17:56.298Z,1237.50
2018-11-06T09:20:21.383Z,1276.88
2018-11-06T09:21:21.330Z,1305.00
2018-11-06T09:46:17.802Z,1400.63
2018-11-06T09:48:59.818Z,1186.88
2018-11-06T09:49:59.756Z,1080.00
2018-11-06T09:50:59.659Z,905.63
2018-11-06T09:51:59.620Z,1023.75
2018-11-06T09:52:59.515Z,1265.63
2018-11-06T09:53:59.437Z,1192.50
2018-11-06T09:54:59.347Z,1321.88
2018-11-06T09:55:59.310Z,1321.88
2018-11-06T09:56:59.195Z,1260.00
2018-11-06T09:57:59.163Z,1310.63
2018-11-06T09:58:59.049Z,1355.63
2018-11-06T09:59:59.000Z,1552.50
2018-11-06T10:00:58.894Z,1575.00
2018-11-06T10:03:41.530Z,1462.50
2018-11-06T10:04:41.259Z,1395.00
2018-11-06T10:05:41.179Z,1440.00
2018-11-06T10:06:41.296Z,1468.13
2018-11-06T10:07:41.063Z,1501.88
2018-11-06T10:08:40.948Z,1434.38
2018-11-06T10:09:40.844Z,1473.75
2018-11-06T10:12:22.834Z,1490.63
2018-11-06T10:13:23.777Z,1586.25
2018-11-06T10:14:22.676Z,1659.38
2018-11-06T10:17:04.858Z,1158.75
2018-11-06T10:19:46.851Z,1642.50
2018-11-06T10:20:46.768Z,1400.63
2018-11-06T10:21:46.684Z,1693.13
2018-11-06T10:24:28.849Z,1440.00
2018-11-06T10:25:28.767Z,1563.75
2018-11-06T10:26:28.686Z,1575.00
2018-11-06T10:27:28.600Z,1676.25
2018-11-06T10:28:28.532Z,1642.50
2018-11-06T10:29:29.478Z,1738.13
2018-11-06T10:30:28.369Z,1614.38
2018-11-06T10:31:28.296Z,1726.88
2018-11-06T10:32:28.205Z,1434.38
2018-11-06T10:33:28.147Z,1569.38
2018-11-06T10:34:28.083Z,1395.00
2018-11-06T10:35:27.999Z,1501.88
2018-11-06T10:36:27.902Z,1141.88
2018-11-06T10:39:09.839Z,1743.75
2018-11-06T10:40:10.772Z,1771.88
2018-11-06T10:41:09.684Z,1805.63
2018-11-06T10:42:09.624Z,1676.25
2018-11-06T10:43:09.520Z,1681.88
2018-11-06T10:44:09.471Z,1530.00
2018-11-06T10:45:09.393Z,1479.38
2018-11-06T10:46:09.304Z,1445.63
2018-11-06T10:47:09.213Z,1451.25
2018-11-06T10:49:51.360Z,1501.88
2018-11-06T10:50:51.268Z,1591.88
2018-11-06T10:51:51.214Z,1575.00
2018-11-06T10:52:51.114Z,1597.50
2018-11-06T10:53:51.032Z,1434.38
2018-11-06T10:54:50.977Z,1513.13
2018-11-06T10:55:50.888Z,1530.00
2018-11-06T10:58:32.837Z,1468.13
2018-11-06T11:01:14.862Z,1378.13
2018-11-06T11:02:14.766Z,1288.13
2018-11-06T11:03:14.686Z,1383.75
2018-11-06T11:04:14.657Z,1569.38
2018-11-06T11:05:14.530Z,1440.00
2018-11-06T11:06:14.498Z,1496.25
2018-11-06T11:07:14.384Z,1451.25
2018-11-06T11:09:56.350Z,1563.75
2018-11-06T11:10:57.293Z,1440.00
2018-11-06T11:11:56.187Z,1366.88
2018-11-06T11:12:56.125Z,1513.13
2018-11-06T11:13:56.043Z,1507.50
2018-11-06T11:14:55.966Z,1490.63
2018-11-06T11:15:55.898Z,1440.00
2018-11-06T11:16:55.821Z,1423.13
2018-11-06T11:17:55.727Z,1321.88
2018-11-06T11:18:55.658Z,1226.25
2018-11-06T11:19:55.624Z,1209.38
2018-11-06T11:20:55.564Z,1158.75
2018-11-06T11:21:55.461Z,1153.13
2018-11-06T11:22:55.352Z,1209.38
2018-11-06T11:23:55.279Z,1192.50
2018-11-06T11:24:55.195Z,1164.38
2018-11-06T11:25:55.172Z,1141.88
2018-11-06T11:26:55.048Z,1220.63
2018-11-06T11:27:54.964Z,1175.63
2018-11-06T11:28:54.901Z,1226.25
2018-11-06T11:29:54.932Z,1186.88
2018-11-06T11:32:36.898Z,1631.25
2018-11-06T11:33:36.809Z,1350.00
2018-11-06T11:34:36.701Z,1501.88
2018-11-06T11:35:36.632Z,1293.75
2018-11-06T11:36:36.695Z,1389.38
2018-11-06T11:37:36.537Z,1479.38
2018-11-06T11:38:36.392Z,1591.88
2018-11-06T11:39:36.524Z,1766.25
2018-11-06T11:40:36.242Z,1732.50
2018-11-06T11:41:36.191Z,1822.50
2018-11-06T11:42:36.098Z,1929.38
2018-11-06T11:45:18.367Z,1507.50
2018-11-06T11:46:18.289Z,1580.63
2018-11-06T11:47:18.224Z,1473.75
2018-11-06T11:48:18.144Z,1310.63
2018-11-06T11:49:18.109Z,1434.38
2018-11-06T11:50:17.977Z,1726.88
2018-11-06T11:51:17.908Z,1586.25
2018-11-06T11:52:18.004Z,1389.38
2018-11-06T11:53:17.789Z,1305.00
2018-11-06T11:54:17.671Z,1440.00
2018-11-06T11:55:17.575Z,1670.63
2018-11-06T11:56:17.518Z,1220.63
2018-11-06T11:57:17.454Z,635.63
2018-11-06T11:58:19.393Z,528.75
2018-11-06T11:59:17.274Z,500.63
2018-11-06T12:00:17.316Z,478.13
2018-11-06T12:01:17.117Z,472.50
2018-11-06T12:03:59.378Z,466.88
2018-11-06T12:04:59.352Z,450.00
2018-11-06T12:05:59.223Z,450.00
2018-11-06T12:08:41.390Z,450.00
2018-11-06T12:09:41.298Z,444.38
2018-11-06T12:10:41.208Z,450.00
2018-11-06T12:13:23.390Z,433.13
2018-11-06T12:14:23.421Z,455.63
2018-11-06T12:15:23.214Z,483.75
2018-11-06T12:16:23.132Z,540.00
2018-11-06T12:17:23.119Z,540.00
2018-11-06T12:18:24.047Z,478.13
2018-11-06T12:19:22.917Z,444.38
2018-11-06T12:20:22.830Z,433.13
2018-11-06T12:21:22.748Z,433.13
2018-11-06T12:24:05.000Z,433.13
2018-11-06T12:25:05.158Z,444.38
2018-11-06T12:26:04.728Z,438.75
2018-11-06T12:28:46.922Z,438.75
2018-11-06T12:29:47.849Z,444.38
2018-11-06T12:30:46.708Z,438.75
2018-11-06T12:33:28.908Z,427.50
2018-11-06T12:36:10.907Z,410.63
2018-11-06T12:37:10.844Z,405.00
2018-11-06T12:38:10.714Z,399.38
2018-11-06T12:39:11.677Z,399.38
2018-11-06T12:40:10.560Z,393.75
2018-11-06T12:42:52.384Z,388.13
2018-11-06T12:43:52.299Z,376.88
2018-11-06T12:44:52.245Z,371.25
2018-11-06T12:45:52.174Z,360.00
2018-11-06T12:46:52.068Z,354.38
2018-11-06T12:47:51.994Z,354.38
2018-11-06T12:48:51.894Z,348.75
2018-11-06T12:49:51.830Z,348.75
2018-11-06T12:50:51.780Z,343.13
2018-11-06T12:53:33.889Z,337.50
2018-11-06T12:54:33.808Z,337.50
2018-11-06T12:55:33.727Z,337.50
2018-11-06T12:56:33.677Z,343.13
2018-11-06T12:57:33.571Z,343.13
2018-11-06T12:58:33.494Z,348.75
2018-11-06T12:59:33.423Z,354.38
2018-11-06T13:02:15.409Z,354.38
2018-11-06T13:03:15.360Z,354.38
2018-11-06T13:04:15.231Z,354.38
2018-11-06T13:05:15.195Z,365.63
2018-11-06T13:06:15.094Z,360.00
2018-11-06T13:07:16.009Z,360.00
2018-11-06T13:08:14.912Z,365.63
2018-11-06T13:09:14.858Z,360.00
2018-11-06T13:10:14.746Z,354.38
2018-11-06T13:11:14.687Z,348.75
2018-11-06T13:12:14.615Z,348.75
2018-11-06T13:13:14.537Z,354.38
2018-11-06T13:14:14.445Z,348.75
2018-11-06T13:15:15.639Z,348.75
2018-11-06T13:16:14.331Z,354.38
2018-11-06T13:17:14.330Z,354.38
2018-11-06T13:18:14.099Z,354.38
2018-11-06T13:19:14.038Z,354.38
2018-11-06T13:20:13.975Z,348.75
2018-11-06T13:21:13.900Z,331.88
2018-11-06T13:22:13.779Z,326.25
2018-11-06T13:23:13.730Z,326.25
2018-11-06T13:24:13.627Z,320.63
2018-11-06T13:26:55.930Z,309.38
2018-11-06T13:29:37.896Z,292.50
2018-11-06T13:32:19.914Z,275.63
2018-11-06T13:33:20.837Z,264.38
2018-11-06T13:34:19.734Z,258.75
2018-11-06T13:35:19.675Z,253.13
2018-11-06T13:36:19.584Z,247.50
2018-11-06T13:39:01.430Z,236.25
2018-11-06T13:40:01.330Z,230.63
2018-11-06T13:41:01.231Z,225.00
2018-11-06T13:42:01.284Z,225.00
2018-11-06T13:43:01.164Z,225.00
2018-11-06T13:44:02.213Z,241.88
2018-11-06T13:45:01.052Z,241.88
2018-11-06T13:46:00.846Z,241.88
2018-11-06T13:47:00.761Z,236.25
2018-11-06T13:48:00.693Z,236.25
2018-11-06T13:49:00.633Z,236.25
2018-11-06T13:51:42.898Z,230.63
2018-11-06T13:52:42.820Z,219.38
2018-11-06T13:53:42.785Z,219.38
2018-11-06T13:54:42.671Z,208.13
2018-11-06T13:55:42.596Z,202.50
2018-11-06T13:58:24.455Z,191.25
2018-11-06T13:59:25.343Z,191.25
2018-11-06T14:00:24.238Z,191.25
2018-11-06T14:01:24.179Z,185.63
2018-11-06T14:02:24.089Z,185.63
2018-11-06T14:03:24.017Z,180.00
2018-11-06T14:04:24.037Z,180.00
2018-11-06T14:05:23.855Z,174.38
2018-11-06T14:06:23.764Z,174.38
2018-11-06T14:07:23.702Z,174.38
2018-11-06T14:08:23.621Z,174.38
2018-11-06T14:09:23.597Z,174.38
2018-11-06T14:10:23.585Z,168.75
2018-11-06T14:11:23.369Z,168.75
2018-11-06T14:12:23.280Z,174.38
2018-11-06T14:13:23.215Z,174.38
2018-11-06T14:14:23.154Z,180.00
2018-11-06T14:15:23.070Z,174.38
2018-11-06T14:16:22.959Z,174.38
2018-11-06T14:17:22.891Z,174.38
2018-11-06T14:18:22.806Z,174.38
2018-11-06T14:21:05.041Z,174.38
2018-11-06T14:22:04.845Z,174.38
2018-11-06T14:23:04.774Z,174.38
2018-11-06T14:24:04.688Z,174.38
2018-11-06T14:25:04.622Z,174.38
2018-11-06T14:26:06.518Z,174.38
2018-11-06T14:27:04.454Z,174.38
2018-11-06T14:28:04.364Z,174.38
2018-11-06T14:29:04.290Z,168.75
2018-11-06T14:30:04.224Z,168.75
2018-11-06T14:31:04.130Z,168.75
2018-11-06T14:32:04.047Z,168.75
2018-11-06T14:33:03.941Z,168.75
2018-11-06T14:35:45.998Z,163.13
2018-11-06T14:36:45.844Z,163.13
2018-11-06T14:37:45.758Z,163.13
2018-11-06T14:38:45.687Z,157.50
2018-11-06T14:39:45.597Z,157.50
2018-11-06T14:40:47.583Z,157.50
2018-11-06T14:41:45.439Z,157.50
2018-11-06T14:42:45.365Z,157.50
2018-11-06T14:43:45.272Z,151.88
2018-11-06T14:44:45.210Z,151.88
2018-11-06T14:45:45.133Z,146.25
2018-11-06T14:46:45.049Z,146.25
2018-11-06T14:47:44.995Z,140.63
2018-11-06T14:48:45.112Z,140.63
2018-11-06T14:49:44.800Z,135.00
2018-11-06T14:50:44.732Z,135.00
2018-11-06T14:51:44.669Z,129.38
2018-11-06T14:52:44.559Z,135.00
2018-11-06T14:53:44.473Z,129.38
2018-11-06T14:54:44.412Z,123.75
2018-11-06T14:55:44.379Z,123.75
2018-11-06T14:56:44.258Z,118.13
2018-11-06T14:57:44.179Z,118.13
2018-11-06T15:00:26.438Z,112.50
2018-11-06T15:01:27.377Z,112.50
2018-11-06T15:02:26.272Z,112.50
2018-11-06T15:03:26.190Z,106.88
2018-11-06T15:04:26.120Z,101.25
2018-11-06T15:05:26.070Z,101.25
2018-11-06T15:06:25.934Z,95.63
2018-11-06T15:07:25.898Z,95.63
2018-11-06T15:08:25.795Z,90.00
2018-11-06T15:11:07.935Z,84.38
2018-11-06T15:12:07.875Z,84.38
2018-11-06T15:13:07.767Z,78.75
2018-11-06T15:14:07.694Z,78.75
2018-11-06T15:15:07.613Z,78.75
2018-11-06T15:16:07.541Z,73.13
2018-11-06T15:17:07.480Z,73.13
2018-11-06T15:19:49.460Z,67.50
2018-11-06T15:22:31.464Z,61.88
2018-11-06T15:23:31.377Z,61.88
2018-11-06T15:24:31.271Z,61.88
2018-11-06T15:25:31.188Z,56.25
2018-11-06T15:26:31.177Z,56.25
2018-11-06T15:27:31.092Z,56.25
2018-11-06T15:28:30.948Z,56.25
2018-11-06T15:29:30.992Z,50.63
2018-11-06T15:30:30.784Z,50.63
2018-11-06T15:31:30.721Z,45.00
2018-11-06T15:32:30.796Z,45.00
2018-11-06T15:33:31.585Z,45.00
2018-11-06T15:34:30.480Z,39.38
2018-11-06T15:35:30.432Z,39.38
2018-11-06T15:36:30.302Z,33.75
2018-11-06T15:37:30.235Z,33.75
2018-11-06T15:38:30.189Z,33.75
2018-11-06T15:39:30.095Z,28.13
2018-11-06T15:40:29.973Z,28.13
2018-11-06T15:41:29.988Z,28.13
2018-11-06T15:42:29.834Z,22.50
2018-11-06T15:43:29.773Z,22.50
2018-11-06T15:44:29.661Z,22.50
2018-11-06T15:45:29.583Z,16.88
2018-11-06T15:46:29.501Z,16.88
2018-11-06T15:47:29.430Z,16.88
2018-11-06T15:48:29.435Z,16.88
2018-11-06T15:49:29.269Z,16.88
2018-11-06T15:50:29.201Z,11.25
2018-11-06T15:53:11.456Z,11.25
2018-11-06T15:54:11.384Z,11.25
2018-11-06T15:55:11.278Z,11.25
2018-11-06T15:56:11.197Z,11.25
2018-11-06T15:57:11.121Z,5.63
2018-11-06T15:59:53.024Z,5.63
2018-11-06T16:02:34.940Z,5.63
2018-11-06T16:05:16.972Z,5.63
2018-11-06T16:07:58.987Z,0.00
2018-11-06T16:08:58.866Z,0.00
2018-11-06T16:09:59.028Z,0.00
2018-11-06T16:10:58.741Z,0.00
2018-11-06T16:11:58.650Z,0.00
2018-11-06T16:12:58.550Z,0.00
2018-11-06T16:13:58.486Z,0.00
2018-11-06T16:14:58.405Z,0.00
2018-11-06T16:15:58.302Z,0.00
2018-11-06T16:16:58.226Z,0.00
2018-11-06T16:17:58.132Z,0.00
2018-11-06T16:18:58.081Z,0.00
2018-11-06T16:19:58.013Z,0.00
2018-11-06T16:20:58.010Z,0.00
2018-11-06T16:21:57.811Z,0.00
2018-11-06T16:22:57.732Z,0.00
2018-11-06T16:23:57.668Z,0.00
2018-11-06T16:26:39.978Z,0.00
2018-11-06T16:27:39.879Z,0.00
2018-11-06T16:28:39.788Z,0.00
2018-11-06T16:31:21.951Z,0.00
2018-11-06T16:32:21.959Z,0.00
2018-11-06T16:33:21.795Z,0.00
2018-11-06T16:34:21.724Z,0.00
2018-11-06T16:35:21.664Z,0.00
2018-11-06T16:36:22.562Z,0.00
2018-11-06T16:37:21.458Z,0.00
2018-11-06T16:38:21.402Z,0.00
2018-11-06T16:39:21.294Z,0.00
2018-11-06T16:40:22.244Z,0.00
2018-11-06T16:41:21.237Z,0.00
2018-11-06T16:44:02.954Z,0.00
2018-11-06T16:45:02.894Z,0.00
2018-11-06T16:46:02.809Z,0.00
2018-11-06T16:47:02.728Z,0.00
2018-11-06T16:48:02.670Z,0.00
2018-11-06T16:49:02.576Z,0.00
2018-11-06T16:50:02.509Z,0.00
2018-11-06T16:51:02.393Z,0.00
2018-11-06T16:52:02.306Z,0.00
2018-11-06T16:53:02.414Z,0.00
2018-11-06T16:54:02.144Z,0.00
2018-11-06T16:55:02.061Z,0.00
2018-11-06T16:56:01.986Z,0.00
2018-11-06T16:57:01.960Z,0.00
2018-11-06T16:58:01.838Z,0.00
2018-11-06T16:59:01.736Z,0.00
2018-11-06T17:00:01.772Z,0.00
2018-11-06T17:01:01.711Z,0.00
2018-11-06T17:02:01.499Z,0.00
2018-11-06T17:03:02.532Z,0.00
2018-11-06T17:04:01.321Z,0.00
2018-11-06T17:06:43.556Z,0.00
2018-11-06T17:07:43.403Z,0.00
2018-11-06T17:08:43.313Z,0.00
2018-11-06T17:09:43.229Z,0.00
2018-11-06T17:10:43.147Z,0.00
2018-11-06T17:13:25.153Z,0.00
2018-11-06T17:14:24.905Z,0.00
2018-11-06T17:15:24.797Z,0.00
2018-11-06T17:16:24.745Z,0.00
2018-11-06T17:17:24.682Z,0.00
2018-11-06T17:18:24.587Z,0.00
2018-11-06T17:19:24.480Z,0.00
2018-11-06T17:20:24.414Z,0.00
2018-11-06T17:21:24.333Z,0.00
2018-11-06T17:22:24.239Z,0.00
2018-11-06T17:23:24.150Z,0.00
2018-11-06T17:24:24.100Z,0.00
2018-11-06T17:25:24.004Z,0.00
2018-11-06T17:26:23.912Z,0.00
2018-11-06T17:27:23.833Z,0.00
2018-11-06T17:28:23.752Z,0.00
2018-11-06T17:29:23.698Z,0.00
2018-11-06T17:30:23.589Z,0.00
2018-11-06T17:31:23.495Z,0.00
2018-11-06T17:34:05.531Z,0.00
2018-11-06T17:35:05.392Z,0.00
2018-11-06T17:36:05.304Z,0.00
2018-11-06T17:37:05.243Z,0.00
2018-11-06T17:38:05.160Z,0.00
2018-11-06T17:39:05.098Z,0.00
2018-11-06T17:40:04.995Z,0.00